createdAt,value
2018-01-25T00:01:42.914Z,10.59
2018-01-25T00:04:10.375Z,10.60
2018-01-25T00:06:37.826Z,10.60
2018-01-25T00:09:05.370Z,10.60
2018-01-25T00:11:32.879Z,10.63
2018-01-25T00:14:00.431Z,10.64
2018-01-25T00:16:27.908Z,10.65
2018-01-25T00:18:55.461Z,10.72
2018-01-25T00:21:23.002Z,10.78
2018-01-25T00:23:50.497Z,10.84
2018-01-25T00:26:17.996Z,10.85
2018-01-25T00:28:45.547Z,10.82
2018-01-25T00:31:13.056Z,10.82
2018-01-25T00:33:40.682Z,10.83
2018-01-25T00:36:08.182Z,10.85
2018-01-25T00:38:36.351Z,10.89
2018-01-25T00:41:03.827Z,10.89
2018-01-25T00:43:31.330Z,10.94
2018-01-25T00:45:58.786Z,11.01
2018-01-25T00:48:26.273Z,11.00
2018-01-25T00:50:53.734Z,11.03
2018-01-25T00:53:21.219Z,11.05
2018-01-25T00:55:48.741Z,11.05
2018-01-25T00:58:16.272Z,11.04
2018-01-25T01:00:43.751Z,11.04
2018-01-25T01:03:11.289Z,11.00
2018-01-25T01:05:38.796Z,11.01
2018-01-25T01:08:06.277Z,11.03
2018-01-25T01:10:33.762Z,11.04
2018-01-25T01:13:01.339Z,11.04
2018-01-25T01:15:28.847Z,11.04
2018-01-25T01:17:56.373Z,11.03
2018-01-25T01:20:23.899Z,11.04
2018-01-25T01:22:51.431Z,11.02
2018-01-25T01:25:18.902Z,11.00
2018-01-25T01:27:46.434Z,10.97
2018-01-25T01:30:13.911Z,10.95
2018-01-25T01:32:41.425Z,10.92
2018-01-25T01:35:09.057Z,10.91
2018-01-25T01:37:36.534Z,10.87
2018-01-25T01:40:04.023Z,10.88
2018-01-25T01:42:31.471Z,10.89
2018-01-25T01:44:59.185Z,10.86
2018-01-25T01:47:26.666Z,10.85
2018-01-25T01:49:54.122Z,10.82
2018-01-25T01:52:21.619Z,10.81
2018-01-25T01:54:49.096Z,10.80
2018-01-25T01:57:16.767Z,10.83
2018-01-25T01:59:44.228Z,10.82
2018-01-25T02:02:11.722Z,10.84
2018-01-25T02:04:39.187Z,10.84
2018-01-25T02:07:06.670Z,10.83
2018-01-25T02:09:34.145Z,10.83
2018-01-25T02:12:01.630Z,10.84
2018-01-25T02:14:29.117Z,10.87
2018-01-25T02:16:56.582Z,10.93
2018-01-25T02:19:24.039Z,10.93
2018-01-25T02:21:51.562Z,10.96
2018-01-25T02:24:19.071Z,11.01
2018-01-25T02:26:46.575Z,11.03
2018-01-25T02:29:14.053Z,11.04
2018-01-25T02:31:41.507Z,11.04
2018-01-25T02:34:08.962Z,11.04
2018-01-25T02:36:36.523Z,11.07
2018-01-25T02:39:04.021Z,11.08
2018-01-25T02:41:31.952Z,11.09
2018-01-25T02:43:59.435Z,11.09
2018-01-25T02:46:26.929Z,11.05
2018-01-25T02:48:54.408Z,11.10
2018-01-25T02:51:21.902Z,11.24
2018-01-25T02:53:49.449Z,11.35
2018-01-25T02:56:16.911Z,11.43
2018-01-25T02:58:44.394Z,11.42
2018-01-25T03:01:11.844Z,11.40
2018-01-25T03:03:39.319Z,11.42
2018-01-25T03:06:08.205Z,11.41
2018-01-25T03:08:35.659Z,11.40
2018-01-25T03:11:03.146Z,11.37
2018-01-25T03:13:30.633Z,11.37
2018-01-25T03:15:58.111Z,11.36
2018-01-25T03:18:25.683Z,11.36
2018-01-25T03:20:53.173Z,11.37
2018-01-25T03:23:20.646Z,11.40
2018-01-25T03:25:48.117Z,11.43
2018-01-25T03:28:15.611Z,11.37
2018-01-25T03:30:43.186Z,11.38
2018-01-25T03:33:10.647Z,11.34
2018-01-25T03:35:38.174Z,11.36
2018-01-25T03:38:05.672Z,11.37
2018-01-25T03:40:33.184Z,11.37
2018-01-25T03:43:00.766Z,11.37
2018-01-25T03:45:28.439Z,11.32
2018-01-25T03:47:55.917Z,11.28
2018-01-25T03:50:23.392Z,11.24
2018-01-25T03:52:50.854Z,11.21
2018-01-25T03:55:18.372Z,11.22
2018-01-25T03:57:45.868Z,11.23
2018-01-25T04:00:13.361Z,11.22
2018-01-25T04:02:40.844Z,11.25
2018-01-25T04:05:08.364Z,11.24
2018-01-25T04:07:36.702Z,11.21
2018-01-25T04:10:04.195Z,11.09
2018-01-25T04:12:31.686Z,11.02
2018-01-25T04:14:59.175Z,10.97
2018-01-25T04:17:26.630Z,10.96
2018-01-25T04:19:54.127Z,10.89
2018-01-25T04:22:21.618Z,10.87
2018-01-25T04:24:49.125Z,10.87
2018-01-25T04:27:16.709Z,10.86
2018-01-25T04:29:44.222Z,10.83
2018-01-25T04:32:11.785Z,10.81
2018-01-25T04:34:39.289Z,10.82
2018-01-25T04:37:06.746Z,10.78
2018-01-25T04:39:34.239Z,10.79
2018-01-25T04:42:01.735Z,10.77
2018-01-25T04:44:29.219Z,10.79
2018-01-25T04:46:56.719Z,10.78
2018-01-25T04:49:24.180Z,10.76
2018-01-25T04:51:51.651Z,10.76
2018-01-25T04:54:19.146Z,10.74
2018-01-25T04:56:46.598Z,10.76
2018-01-25T04:59:14.088Z,10.78
2018-01-25T05:01:41.594Z,10.77
2018-01-25T05:04:09.134Z,10.76
2018-01-25T05:06:36.607Z,10.80
2018-01-25T05:09:04.117Z,10.81
2018-01-25T05:11:31.652Z,10.80
2018-01-25T05:13:59.157Z,10.82
2018-01-25T05:16:27.552Z,10.82
2018-01-25T05:18:55.056Z,10.83
2018-01-25T05:21:22.582Z,10.81
2018-01-25T05:23:50.066Z,10.79
2018-01-25T05:26:17.629Z,10.79
2018-01-25T05:28:45.138Z,10.77
2018-01-25T05:31:12.595Z,10.78
2018-01-25T05:33:40.117Z,10.79
2018-01-25T05:36:07.611Z,10.80
2018-01-25T05:38:35.124Z,10.78
2018-01-25T05:41:02.575Z,10.78
2018-01-25T05:43:30.144Z,10.79
2018-01-25T05:45:57.611Z,10.82
2018-01-25T05:48:25.091Z,10.83
2018-01-25T05:50:52.554Z,10.83
2018-01-25T05:53:20.017Z,10.83
2018-01-25T05:55:47.599Z,10.85
2018-01-25T05:58:15.091Z,10.87
2018-01-25T06:00:42.575Z,10.87
2018-01-25T06:03:10.047Z,10.85
2018-01-25T06:05:37.501Z,10.89
2018-01-25T06:08:05.008Z,10.88
2018-01-25T06:10:32.494Z,10.91
2018-01-25T06:12:59.980Z,10.92
2018-01-25T06:15:27.428Z,10.95
2018-01-25T06:17:54.906Z,10.96
2018-01-25T06:20:22.366Z,10.97
2018-01-25T06:22:50.550Z,10.97
2018-01-25T06:25:18.021Z,10.99
2018-01-25T06:27:45.502Z,11.01
2018-01-25T06:30:13.183Z,11.01
2018-01-25T06:32:40.654Z,11.02
2018-01-25T06:35:08.164Z,11.06
2018-01-25T06:37:35.657Z,11.06
2018-01-25T06:40:03.279Z,11.21
2018-01-25T06:42:30.741Z,11.39
2018-01-25T06:45:02.144Z,11.52
2018-01-25T06:47:29.657Z,11.61
2018-01-25T06:49:57.175Z,11.62
2018-01-25T06:52:24.761Z,11.51
2018-01-25T06:54:54.108Z,11.37
2018-01-25T06:57:21.625Z,11.27
2018-01-25T06:59:49.226Z,11.21
2018-01-25T07:02:16.687Z,11.11
2018-01-25T07:04:44.258Z,11.09
2018-01-25T07:07:11.769Z,11.10
2018-01-25T07:09:39.251Z,11.06
2018-01-25T07:12:06.721Z,11.05
2018-01-25T07:14:34.242Z,11.03
2018-01-25T07:17:01.774Z,11.01
2018-01-25T07:19:29.342Z,11.02
2018-01-25T07:22:02.236Z,11.05
2018-01-25T07:24:29.699Z,11.05
2018-01-25T07:26:57.160Z,11.04
2018-01-25T07:29:24.758Z,11.03
2018-01-25T07:31:52.241Z,11.04
2018-01-25T07:34:19.719Z,11.05
2018-01-25T07:36:47.291Z,11.03
2018-01-25T07:39:14.827Z,11.05
2018-01-25T07:41:42.524Z,11.07
2018-01-25T07:44:10.043Z,11.06
2018-01-25T07:46:37.653Z,11.08
2018-01-25T07:49:05.156Z,11.03
2018-01-25T07:51:32.965Z,11.05
2018-01-25T07:54:00.630Z,11.06
2018-01-25T07:56:28.204Z,11.09
2018-01-25T07:58:55.776Z,11.08
2018-01-25T08:01:23.295Z,11.09
2018-01-25T08:03:50.850Z,11.10
2018-01-25T08:06:18.386Z,11.12
2018-01-25T08:08:45.902Z,11.13
2018-01-25T08:11:13.504Z,11.09
2018-01-25T08:13:41.094Z,11.12
2018-01-25T08:16:14.176Z,11.10
2018-01-25T08:18:41.659Z,11.13
2018-01-25T08:21:09.151Z,11.13
2018-01-25T08:23:36.672Z,11.14
2018-01-25T08:26:04.252Z,11.12
2018-01-25T08:28:31.748Z,11.18
2018-01-25T08:30:59.234Z,11.18
2018-01-25T08:33:26.782Z,11.18
2018-01-25T08:35:54.285Z,11.18
2018-01-25T08:38:21.739Z,11.17
2018-01-25T08:40:49.396Z,11.18
2018-01-25T08:43:16.959Z,11.23
2018-01-25T08:45:44.424Z,11.22
2018-01-25T08:48:11.937Z,11.22
2018-01-25T08:50:39.511Z,11.21
2018-01-25T08:53:07.171Z,11.22
2018-01-25T08:55:35.099Z,11.25
2018-01-25T08:58:02.716Z,11.28
2018-01-25T09:00:30.254Z,11.26
2018-01-25T09:02:57.827Z,11.29
2018-01-25T09:05:25.364Z,11.32
2018-01-25T09:07:52.828Z,11.31
2018-01-25T09:10:20.339Z,11.33
2018-01-25T09:12:47.858Z,11.35
2018-01-25T09:15:15.409Z,11.37
2018-01-25T09:17:42.997Z,11.41
2018-01-25T09:20:10.479Z,11.41
2018-01-25T09:22:37.981Z,11.44
2018-01-25T09:25:05.603Z,11.47
2018-01-25T09:27:33.099Z,11.50
2018-01-25T09:30:00.610Z,11.51
2018-01-25T09:32:28.082Z,11.56
2018-01-25T09:34:55.545Z,11.59
2018-01-25T09:37:23.025Z,11.64
2018-01-25T09:39:50.502Z,11.73
2018-01-25T09:42:17.987Z,11.76
2018-01-25T09:44:45.461Z,11.78
2018-01-25T09:47:12.925Z,11.79
2018-01-25T09:49:40.446Z,11.86
2018-01-25T09:52:07.945Z,11.87
2018-01-25T09:54:35.403Z,11.89
2018-01-25T09:57:02.919Z,11.92
2018-01-25T09:59:30.389Z,11.97
2018-01-25T10:01:57.905Z,11.96
2018-01-25T10:04:25.634Z,11.98
2018-01-25T10:06:53.461Z,12.00
2018-01-25T10:09:21.029Z,12.03
2018-01-25T10:11:48.549Z,12.05
2018-01-25T10:14:16.066Z,12.09
2018-01-25T10:16:43.569Z,12.16
2018-01-25T10:19:11.084Z,12.15
2018-01-25T10:21:38.593Z,12.11
2018-01-25T10:24:06.081Z,12.08
2018-01-25T10:26:33.800Z,12.08
2018-01-25T10:29:01.326Z,12.06
2018-01-25T10:31:29.026Z,12.12
2018-01-25T10:33:56.576Z,12.10
2018-01-25T10:36:24.200Z,12.13
2018-01-25T10:38:51.716Z,12.14
2018-01-25T10:41:19.262Z,12.14
2018-01-25T10:43:46.833Z,12.16
2018-01-25T10:46:14.324Z,12.13
2018-01-25T10:48:41.840Z,12.14
2018-01-25T10:51:09.444Z,12.16
2018-01-25T10:53:36.989Z,12.16
2018-01-25T10:56:04.515Z,12.15
2018-01-25T10:58:32.033Z,12.14
2018-01-25T11:01:05.189Z,12.15
2018-01-25T11:03:32.753Z,12.17
2018-01-25T11:06:00.242Z,12.17
2018-01-25T11:08:27.727Z,12.16
2018-01-25T11:10:55.269Z,12.18
2018-01-25T11:13:22.971Z,12.18
2018-01-25T11:15:50.481Z,12.18
2018-01-25T11:18:17.960Z,12.18
2018-01-25T11:20:45.759Z,12.16
2018-01-25T11:23:14.121Z,12.21
2018-01-25T11:25:42.410Z,12.20
2018-01-25T11:28:09.897Z,12.19
2018-01-25T11:30:37.399Z,12.21
2018-01-25T11:33:10.032Z,12.23
2018-01-25T11:35:37.590Z,12.28
2018-01-25T11:38:05.117Z,12.34
2018-01-25T11:40:33.406Z,12.40
2018-01-25T11:43:00.895Z,12.43
2018-01-25T11:45:28.406Z,12.45
2018-01-25T11:47:55.873Z,12.50
2018-01-25T11:50:23.540Z,12.54
2018-01-25T11:52:51.041Z,12.50
2018-01-25T11:55:18.596Z,12.50
2018-01-25T11:57:46.190Z,12.50
2018-01-25T12:00:13.791Z,12.48
2018-01-25T12:02:41.355Z,12.50
2018-01-25T12:05:08.897Z,12.49
2018-01-25T12:07:36.384Z,12.49
2018-01-25T12:10:03.874Z,12.49
2018-01-25T12:12:31.405Z,12.49
2018-01-25T12:14:59.060Z,12.52
2018-01-25T12:17:26.570Z,12.50
2018-01-25T12:19:54.131Z,12.49
2018-01-25T12:22:21.663Z,12.48
2018-01-25T12:24:49.168Z,12.51
2018-01-25T12:27:16.643Z,12.51
2018-01-25T12:29:44.150Z,12.51
2018-01-25T12:32:11.675Z,12.48
2018-01-25T12:34:39.610Z,12.48
2018-01-25T12:37:07.104Z,12.46
2018-01-25T12:39:34.607Z,12.47
2018-01-25T12:42:02.119Z,12.47
2018-01-25T12:44:31.017Z,12.50
2018-01-25T12:46:58.519Z,12.50
2018-01-25T12:49:28.675Z,12.47
2018-01-25T12:51:57.272Z,12.45
2018-01-25T12:54:25.420Z,12.43
2018-01-25T12:56:52.899Z,12.40
2018-01-25T12:59:20.388Z,12.36
2018-01-25T13:01:47.846Z,12.34
2018-01-25T13:04:15.326Z,12.34
2018-01-25T13:06:42.805Z,12.30
2018-01-25T13:09:10.381Z,12.32
2018-01-25T13:11:38.040Z,12.31
2018-01-25T13:14:05.923Z,12.28
2018-01-25T13:16:33.392Z,12.32
2018-01-25T13:19:01.116Z,12.30
2018-01-25T13:21:28.631Z,12.28
2018-01-25T13:23:56.113Z,12.24
2018-01-25T13:26:23.723Z,12.20
2018-01-25T13:28:51.739Z,12.20
2018-01-25T13:31:19.227Z,12.18
2018-01-25T13:34:00.923Z,12.10
2018-01-25T13:36:28.688Z,12.05
2018-01-25T13:38:56.522Z,12.00
2018-01-25T13:41:31.690Z,11.95
2018-01-25T13:43:59.299Z,11.93
2018-01-25T13:46:26.797Z,11.89
2018-01-25T13:48:54.522Z,11.88
2018-01-25T13:51:22.066Z,11.85
2018-01-25T13:54:08.906Z,11.84
2018-01-25T13:56:36.405Z,11.84
2018-01-25T13:59:04.083Z,11.82
2018-01-25T14:01:31.686Z,11.80
2018-01-25T14:03:59.197Z,11.78
2018-01-25T14:06:27.461Z,11.76
2018-01-25T14:08:55.086Z,11.74
2018-01-25T14:11:22.615Z,11.70
2018-01-25T14:13:50.125Z,11.67
2018-01-25T14:16:17.599Z,11.65
2018-01-25T14:18:45.357Z,11.64
2018-01-25T14:21:13.124Z,11.65
2018-01-25T14:23:45.778Z,11.66
2018-01-25T14:26:13.327Z,11.65
2018-01-25T14:28:40.800Z,11.61
2018-01-25T14:31:08.269Z,11.60
2018-01-25T14:33:55.322Z,11.60
2018-01-25T14:36:22.864Z,11.59
2018-01-25T14:38:50.438Z,11.58
2018-01-25T14:41:18.178Z,11.56
2018-01-25T14:43:45.734Z,11.53
2018-01-25T14:46:13.261Z,11.53
2018-01-25T14:48:41.152Z,11.53
2018-01-25T14:51:08.620Z,11.54
2018-01-25T14:53:36.864Z,11.52
2018-01-25T14:56:05.008Z,11.53
2018-01-25T14:58:32.684Z,11.49
2018-01-25T15:01:01.122Z,11.51
2018-01-25T15:03:28.588Z,11.50
2018-01-25T15:05:56.051Z,11.50
2018-01-25T15:08:23.560Z,11.49
2018-01-25T15:10:51.986Z,11.50
2018-01-25T15:13:19.502Z,11.45
2018-01-25T15:15:47.910Z,11.45
2018-01-25T15:18:16.280Z,11.46
2018-01-25T15:20:43.846Z,11.44
2018-01-25T15:23:11.355Z,11.45
2018-01-25T15:25:44.480Z,11.44
2018-01-25T15:28:11.958Z,11.49
2018-01-25T15:30:39.494Z,11.47
2018-01-25T15:33:07.130Z,11.44
2018-01-25T15:35:34.620Z,11.43
2018-01-25T15:38:02.101Z,11.36
2018-01-25T15:40:29.610Z,11.34
2018-01-25T15:42:57.109Z,11.30
2018-01-25T15:45:24.568Z,11.27
2018-01-25T15:47:52.025Z,11.23
2018-01-25T15:50:19.518Z,11.22
2018-01-25T15:52:47.034Z,11.22
2018-01-25T15:55:15.602Z,11.24
2018-01-25T15:57:43.195Z,11.26
2018-01-25T16:00:10.700Z,11.26
2018-01-25T16:02:38.495Z,11.26
2018-01-25T16:05:05.972Z,11.24
2018-01-25T16:07:33.447Z,11.24
2018-01-25T16:10:01.168Z,11.23
2018-01-25T16:12:28.651Z,11.25
2018-01-25T16:14:56.164Z,11.26
2018-01-25T16:17:23.615Z,11.24
2018-01-25T16:19:51.127Z,11.23
2018-01-25T16:22:18.585Z,11.23
2018-01-25T16:24:46.164Z,11.23
2018-01-25T16:27:13.671Z,11.24
2018-01-25T16:29:41.132Z,11.24
2018-01-25T16:32:08.758Z,11.22
2018-01-25T16:34:36.268Z,11.18
2018-01-25T16:37:03.815Z,11.18
2018-01-25T16:39:31.360Z,11.17
2018-01-25T16:41:58.920Z,11.15
2018-01-25T16:44:26.471Z,11.14
2018-01-25T16:46:54.002Z,11.13
2018-01-25T16:49:21.564Z,11.11
2018-01-25T16:51:49.095Z,11.08
2018-01-25T16:54:16.626Z,11.06
2018-01-25T16:56:44.146Z,11.06
2018-01-25T16:59:11.716Z,11.09
2018-01-25T17:01:39.295Z,11.08
2018-01-25T17:04:06.759Z,11.08
2018-01-25T17:06:34.274Z,11.10
2018-01-25T17:09:01.841Z,11.13
2018-01-25T17:11:29.375Z,11.14
2018-01-25T17:13:56.884Z,11.13
2018-01-25T17:16:24.397Z,11.11
2018-01-25T17:18:51.938Z,11.06
2018-01-25T17:21:19.434Z,11.07
2018-01-25T17:23:46.966Z,11.07
2018-01-25T17:26:14.682Z,11.06
2018-01-25T17:28:42.213Z,11.06
2018-01-25T17:31:09.991Z,11.07
2018-01-25T17:33:37.573Z,11.05
2018-01-25T17:36:06.096Z,11.06
2018-01-25T17:38:33.687Z,11.02
2018-01-25T17:41:01.529Z,11.02
2018-01-25T17:43:29.153Z,11.00
2018-01-25T17:45:56.755Z,11.00
2018-01-25T17:48:24.258Z,10.97
2018-01-25T17:50:51.757Z,10.95
2018-01-25T17:53:19.228Z,10.92
2018-01-25T17:55:46.768Z,10.88
2018-01-25T17:58:14.366Z,10.88
2018-01-25T18:00:41.916Z,10.86
2018-01-25T18:03:09.581Z,10.84
2018-01-25T18:05:37.268Z,10.81
2018-01-25T18:08:04.736Z,10.85
2018-01-25T18:10:32.513Z,10.86
2018-01-25T18:13:00.008Z,10.87
2018-01-25T18:15:27.568Z,10.86
2018-01-25T18:17:55.130Z,10.87
2018-01-25T18:20:22.640Z,10.86
2018-01-25T18:23:09.562Z,10.86
2018-01-25T18:25:37.085Z,10.88
2018-01-25T18:28:04.675Z,10.88
2018-01-25T18:30:32.179Z,10.88
2018-01-25T18:32:59.717Z,10.89
2018-01-25T18:35:27.255Z,10.91
2018-01-25T18:37:54.796Z,10.92
2018-01-25T18:40:22.378Z,10.92
2018-01-25T18:42:49.984Z,10.92
2018-01-25T18:45:17.523Z,10.91
2018-01-25T18:47:45.081Z,10.92
2018-01-25T18:50:12.636Z,10.93
2018-01-25T18:52:40.140Z,10.95
2018-01-25T18:55:07.653Z,10.94
2018-01-25T18:57:35.213Z,10.96
2018-01-25T19:00:02.785Z,10.93
2018-01-25T19:02:30.339Z,10.93
2018-01-25T19:04:57.916Z,10.90
2018-01-25T19:07:25.428Z,10.90
2018-01-25T19:09:52.978Z,10.91
2018-01-25T19:12:25.527Z,10.92
2018-01-25T19:14:53.106Z,10.97
2018-01-25T19:17:20.647Z,10.95
2018-01-25T19:19:48.486Z,10.95
2018-01-25T19:22:16.115Z,10.93
2018-01-25T19:24:43.647Z,10.90
2018-01-25T19:27:11.305Z,10.89
2018-01-25T19:29:38.819Z,10.88
2018-01-25T19:32:06.454Z,10.89
2018-01-25T19:34:34.035Z,10.90
2018-01-25T19:37:01.587Z,10.95
2018-01-25T19:39:29.425Z,10.88
2018-01-25T19:41:57.037Z,10.84
2018-01-25T19:44:24.593Z,10.84
2018-01-25T19:46:52.224Z,10.84
2018-01-25T19:49:19.918Z,10.85
2018-01-25T19:51:48.545Z,10.83
2018-01-25T19:54:16.106Z,10.82
2018-01-25T19:56:43.619Z,10.86
2018-01-25T19:59:11.125Z,10.86
2018-01-25T20:01:38.710Z,10.87
2018-01-25T20:04:06.268Z,10.89
2018-01-25T20:06:33.990Z,10.90
2018-01-25T20:09:01.553Z,10.91
2018-01-25T20:11:29.061Z,10.92
2018-01-25T20:13:56.646Z,10.91
2018-01-25T20:16:24.134Z,10.92
2018-01-25T20:18:51.708Z,10.92
2018-01-25T20:21:19.222Z,10.91
2018-01-25T20:23:48.298Z,10.91
2018-01-25T20:26:15.768Z,10.92
2018-01-25T20:28:43.268Z,10.94
2018-01-25T20:31:10.784Z,10.91
2018-01-25T20:33:38.310Z,10.88
2018-01-25T20:36:05.871Z,10.87
2018-01-25T20:38:33.424Z,10.91
2018-01-25T20:41:01.536Z,10.91
2018-01-25T20:43:29.050Z,10.94
2018-01-25T20:45:56.694Z,10.95
2018-01-25T20:48:24.245Z,11.00
2018-01-25T20:50:51.805Z,10.94
2018-01-25T20:53:24.437Z,10.92
2018-01-25T20:55:52.035Z,10.94
2018-01-25T20:58:19.531Z,10.95
2018-01-25T21:00:47.979Z,10.98
2018-01-25T21:03:15.471Z,10.98
2018-01-25T21:05:43.066Z,10.98
2018-01-25T21:08:10.649Z,10.97
2018-01-25T21:10:38.161Z,10.97
2018-01-25T21:13:05.726Z,10.99
2018-01-25T21:15:33.268Z,10.98
2018-01-25T21:18:00.820Z,10.99
2018-01-25T21:20:28.412Z,10.98
2018-01-25T21:22:56.011Z,10.99
2018-01-25T21:25:23.484Z,11.00
2018-01-25T21:27:50.980Z,10.96
2018-01-25T21:30:18.457Z,10.96
2018-01-25T21:32:46.205Z,10.97
2018-01-25T21:35:13.808Z,10.91
2018-01-25T21:37:41.313Z,10.92
2018-01-25T21:40:08.848Z,10.93
2018-01-25T21:42:36.391Z,10.93
2018-01-25T21:45:03.924Z,10.91
2018-01-25T21:47:31.523Z,10.92
2018-01-25T21:49:59.332Z,10.95
2018-01-25T21:52:26.845Z,10.92
2018-01-25T21:54:55.860Z,10.93
2018-01-25T21:57:24.574Z,10.95
2018-01-25T21:59:54.964Z,10.98
2018-01-25T22:02:22.604Z,10.99
2018-01-25T22:04:50.184Z,11.00
2018-01-25T22:07:18.277Z,11.02
2018-01-25T22:09:45.769Z,11.03
2018-01-25T22:12:13.658Z,11.03
2018-01-25T22:14:41.277Z,11.05
2018-01-25T22:17:08.772Z,11.07
2018-01-25T22:19:36.394Z,11.10
2018-01-25T22:22:03.852Z,11.11
2018-01-25T22:24:31.352Z,11.10
2018-01-25T22:26:58.823Z,11.08
2018-01-25T22:29:26.378Z,11.06
2018-01-25T22:31:53.865Z,11.04
2018-01-25T22:34:21.456Z,11.05
2018-01-25T22:36:49.000Z,10.99
2018-01-25T22:39:16.503Z,10.96
2018-01-25T22:41:43.993Z,10.94
2018-01-25T22:44:11.451Z,10.92
2018-01-25T22:46:39.280Z,10.86
2018-01-25T22:49:06.949Z,10.85
2018-01-25T22:51:34.422Z,10.82
2018-01-25T22:54:01.947Z,10.78
2018-01-25T22:56:29.510Z,10.78
2018-01-25T22:58:57.195Z,10.75
2018-01-25T23:01:24.816Z,10.76
2018-01-25T23:03:58.918Z,10.76
2018-01-25T23:06:26.429Z,10.73
2018-01-25T23:08:54.032Z,10.72
2018-01-25T23:11:22.345Z,10.71
2018-01-25T23:13:49.871Z,10.73
2018-01-25T23:16:17.823Z,10.77
2018-01-25T23:18:45.935Z,10.82
2018-01-25T23:21:13.552Z,10.82
2018-01-25T23:23:41.133Z,10.86
2018-01-25T23:26:08.828Z,10.88
2018-01-25T23:28:36.458Z,10.89
2018-01-25T23:31:03.977Z,10.87
2018-01-25T23:33:31.474Z,10.94
2018-01-25T23:35:58.983Z,10.95
2018-01-25T23:38:35.037Z,10.96
2018-01-25T23:41:02.865Z,10.95
2018-01-25T23:43:31.345Z,10.93
2018-01-25T23:45:58.896Z,10.92
2018-01-25T23:48:26.520Z,10.90
2018-01-25T23:50:54.120Z,10.95
2018-01-25T23:53:21.660Z,10.95
2018-01-25T23:55:49.151Z,10.94
2018-01-25T23:58:16.631Z,10.97
